createdAt,value
2023-04-23T00:00:54.657Z,12.59
2023-04-23T00:03:12.212Z,12.59
2023-04-23T00:05:29.368Z,12.57
2023-04-23T00:07:47.699Z,12.57
2023-04-23T00:10:04.847Z,12.56
2023-04-23T00:12:21.856Z,12.59
2023-04-23T00:14:40.138Z,12.57
2023-04-23T00:16:57.509Z,12.55
2023-04-23T00:19:17.308Z,12.55
2023-04-23T00:21:34.341Z,12.53
2023-04-23T00:23:51.656Z,12.54
2023-04-23T00:26:08.987Z,12.48
2023-04-23T00:28:26.106Z,12.45
2023-04-23T00:30:43.352Z,12.43
2023-04-23T00:33:00.404Z,12.44
2023-04-23T00:35:17.414Z,12.38
2023-04-23T00:37:35.505Z,12.34
2023-04-23T00:39:52.586Z,12.31
2023-04-23T00:42:09.828Z,12.25
2023-04-23T00:44:26.895Z,12.22
2023-04-23T00:46:45.226Z,12.18
2023-04-23T00:49:04.490Z,12.13
2023-04-23T00:51:21.771Z,12.11
2023-04-23T00:53:38.695Z,12.08
2023-04-23T00:55:57.048Z,12.10
2023-04-23T00:58:14.314Z,12.10
2023-04-23T01:00:31.585Z,12.10
2023-04-23T01:02:48.758Z,12.09
2023-04-23T01:05:05.893Z,12.08
2023-04-23T01:07:23.132Z,12.11
2023-04-23T01:09:40.088Z,12.15
2023-04-23T01:11:57.322Z,12.18
2023-04-23T01:14:14.594Z,12.20
2023-04-23T01:16:31.873Z,12.22
2023-04-23T01:18:48.822Z,12.20
2023-04-23T01:21:05.713Z,12.21
2023-04-23T01:23:23.771Z,12.22
2023-04-23T01:25:40.791Z,12.19
2023-04-23T01:27:58.966Z,12.19
2023-04-23T01:30:15.985Z,12.16
2023-04-23T01:32:33.337Z,12.10
2023-04-23T01:34:50.315Z,12.05
2023-04-23T01:37:08.539Z,12.01
2023-04-23T01:39:25.811Z,12.02
2023-04-23T01:41:43.078Z,12.00
2023-04-23T01:44:00.288Z,12.00
2023-04-23T01:46:17.292Z,11.98
2023-04-23T01:48:35.398Z,12.00
2023-04-23T01:50:52.686Z,12.02
2023-04-23T01:53:09.720Z,12.03
2023-04-23T01:55:26.786Z,12.13
2023-04-23T01:57:44.037Z,12.13
2023-04-23T02:00:01.118Z,12.14
2023-04-23T02:02:18.205Z,12.17
2023-04-23T02:04:35.295Z,12.18
2023-04-23T02:06:52.573Z,12.18
2023-04-23T02:09:10.823Z,12.21
2023-04-23T02:11:27.853Z,12.21
2023-04-23T02:13:44.849Z,12.20
2023-04-23T02:16:01.926Z,12.23
2023-04-23T02:18:19.060Z,12.22
2023-04-23T02:20:36.374Z,12.16
2023-04-23T02:22:53.305Z,12.16
2023-04-23T02:25:10.543Z,12.16
2023-04-23T02:27:27.463Z,12.13
2023-04-23T02:29:44.566Z,12.09
2023-04-23T02:32:01.536Z,12.09
2023-04-23T02:34:18.581Z,12.05
2023-04-23T02:36:36.779Z,12.04
2023-04-23T02:38:53.836Z,12.01
2023-04-23T02:41:11.066Z,12.01
2023-04-23T02:43:28.142Z,11.99
2023-04-23T02:45:45.077Z,12.00
2023-04-23T02:48:02.206Z,11.97
2023-04-23T02:50:19.222Z,11.89
2023-04-23T02:52:36.238Z,11.84
2023-04-23T02:54:53.331Z,11.82
2023-04-23T02:57:10.646Z,11.83
2023-04-23T02:59:27.947Z,11.84
2023-04-23T03:01:45.250Z,11.78
2023-04-23T03:04:02.566Z,11.74
2023-04-23T03:06:19.965Z,11.70
2023-04-23T03:08:37.025Z,11.71
2023-04-23T03:10:54.057Z,11.70
2023-04-23T03:13:11.405Z,11.69
2023-04-23T03:15:29.444Z,11.62
2023-04-23T03:17:46.723Z,11.57
2023-04-23T03:20:04.218Z,11.47
2023-04-23T03:22:21.539Z,11.33
2023-04-23T03:24:38.951Z,11.25
2023-04-23T03:26:56.403Z,11.16
2023-04-23T03:29:13.408Z,11.10
2023-04-23T03:31:30.733Z,11.00
2023-04-23T03:33:47.996Z,10.96
2023-04-23T03:36:05.252Z,10.85
2023-04-23T03:38:23.239Z,10.78
2023-04-23T03:40:40.306Z,10.77
2023-04-23T03:42:57.265Z,10.64
2023-04-23T03:45:14.478Z,10.56
2023-04-23T03:47:31.804Z,10.50
2023-04-23T03:49:48.833Z,10.44
2023-04-23T03:52:06.186Z,10.38
2023-04-23T03:54:23.208Z,10.27
2023-04-23T03:56:40.424Z,10.20
2023-04-23T03:58:57.519Z,10.17
2023-04-23T04:01:14.836Z,10.11
2023-04-23T04:03:32.947Z,10.00
2023-04-23T04:05:50.087Z,9.93
2023-04-23T04:08:07.143Z,9.85
2023-04-23T04:10:24.132Z,9.75
2023-04-23T04:12:41.409Z,9.72
2023-04-23T04:14:58.438Z,9.66
2023-04-23T04:17:15.743Z,9.59
2023-04-23T04:19:32.681Z,9.51
2023-04-23T04:21:50.613Z,9.49
2023-04-23T04:24:07.654Z,9.46
2023-04-23T04:26:24.837Z,9.43
2023-04-23T04:28:41.890Z,9.36
2023-04-23T04:30:58.805Z,9.31
2023-04-23T04:33:15.861Z,9.28
2023-04-23T04:35:32.809Z,9.24
2023-04-23T04:37:49.764Z,9.21
2023-04-23T04:40:06.764Z,9.16
2023-04-23T04:42:23.773Z,9.13
2023-04-23T04:44:41.092Z,9.11
2023-04-23T04:46:58.372Z,9.08
2023-04-23T04:49:15.668Z,9.07
2023-04-23T04:51:32.641Z,9.08
2023-04-23T04:53:49.732Z,9.08
2023-04-23T04:56:07.062Z,9.08
2023-04-23T04:58:24.122Z,9.13
2023-04-23T05:00:42.312Z,9.12
2023-04-23T05:02:59.465Z,9.10
2023-04-23T05:05:17.712Z,9.10
2023-04-23T05:07:34.782Z,9.13
2023-04-23T05:09:51.759Z,9.20
2023-04-23T05:12:09.016Z,9.27
2023-04-23T05:14:26.053Z,9.29
2023-04-23T05:16:43.357Z,9.31
2023-04-23T05:19:00.622Z,9.34
2023-04-23T05:21:18.559Z,9.41
2023-04-23T05:23:35.628Z,9.44
2023-04-23T05:25:54.213Z,9.47
2023-04-23T05:28:11.516Z,9.60
2023-04-23T05:30:29.540Z,9.66
2023-04-23T05:32:47.764Z,9.66
2023-04-23T05:35:04.779Z,9.70
2023-04-23T05:37:21.688Z,9.76
2023-04-23T05:39:38.642Z,9.80
2023-04-23T05:41:55.614Z,9.84
2023-04-23T05:44:12.618Z,9.91
2023-04-23T05:46:29.648Z,9.96
2023-04-23T05:48:46.983Z,10.02
2023-04-23T05:51:04.941Z,10.07
2023-04-23T05:53:23.162Z,10.13
2023-04-23T05:55:39.994Z,10.18
2023-04-23T05:57:57.053Z,10.23
2023-04-23T06:00:13.982Z,10.26
2023-04-23T06:02:31.008Z,10.33
2023-04-23T06:04:48.581Z,10.41
2023-04-23T06:07:06.072Z,10.51
2023-04-23T06:09:23.134Z,10.58
2023-04-23T06:11:40.164Z,10.65
2023-04-23T06:13:57.429Z,10.71
2023-04-23T06:16:14.453Z,10.80
2023-04-23T06:18:31.674Z,10.97
2023-04-23T06:20:48.896Z,11.08
2023-04-23T06:23:05.908Z,11.24
2023-04-23T06:25:22.985Z,11.39
2023-04-23T06:27:40.226Z,11.48
2023-04-23T06:29:57.268Z,11.54
2023-04-23T06:32:14.496Z,11.58
2023-04-23T06:34:31.559Z,11.61
2023-04-23T06:36:48.625Z,11.59
2023-04-23T06:39:05.662Z,11.61
2023-04-23T06:41:23.562Z,11.65
2023-04-23T06:43:40.904Z,11.72
2023-04-23T06:45:58.896Z,11.84
2023-04-23T06:48:16.046Z,12.03
2023-04-23T06:50:33.032Z,12.16
2023-04-23T06:52:51.080Z,12.31
2023-04-23T06:55:08.208Z,12.49
2023-04-23T06:57:26.256Z,12.63
2023-04-23T06:59:44.216Z,12.67
2023-04-23T07:02:02.297Z,12.72
2023-04-23T07:04:19.365Z,12.76
2023-04-23T07:06:36.635Z,12.84
2023-04-23T07:08:53.632Z,12.97
2023-04-23T07:11:10.690Z,13.10
2023-04-23T07:13:27.938Z,13.15
2023-04-23T07:15:45.847Z,13.23
2023-04-23T07:18:03.014Z,13.32
2023-04-23T07:20:20.136Z,13.45
2023-04-23T07:22:37.098Z,13.62
2023-04-23T07:24:54.002Z,13.72
2023-04-23T07:27:11.038Z,13.89
2023-04-23T07:29:28.105Z,14.02
2023-04-23T07:31:45.163Z,14.09
2023-04-23T07:34:02.135Z,14.10
2023-04-23T07:36:19.371Z,14.18
2023-04-23T07:38:37.705Z,14.25
2023-04-23T07:40:54.560Z,14.39
2023-04-23T07:43:11.639Z,14.48
2023-04-23T07:45:28.591Z,14.67
2023-04-23T07:47:45.617Z,14.88
2023-04-23T07:50:02.906Z,15.05
2023-04-23T07:52:20.178Z,15.21
2023-04-23T07:54:37.094Z,15.15
2023-04-23T07:56:54.368Z,15.37
2023-04-23T07:59:12.628Z,15.41
2023-04-23T08:01:29.572Z,15.33
2023-04-23T08:03:46.788Z,15.14
2023-04-23T08:06:04.139Z,15.11
2023-04-23T08:08:21.367Z,15.13
2023-04-23T08:10:38.405Z,15.19
2023-04-23T08:12:55.239Z,15.22
2023-04-23T08:15:12.538Z,15.20
2023-04-23T08:17:29.627Z,15.23
2023-04-23T08:19:46.636Z,15.14
2023-04-23T08:22:03.780Z,15.01
2023-04-23T08:24:20.902Z,15.00
2023-04-23T08:26:37.895Z,15.10
2023-04-23T08:28:55.181Z,15.14
2023-04-23T08:31:22.867Z,15.24
2023-04-23T08:33:43.169Z,15.42
2023-04-23T08:36:00.212Z,15.27
2023-04-23T08:38:18.273Z,15.30
2023-04-23T08:40:35.467Z,15.42
2023-04-23T08:42:52.514Z,15.38
2023-04-23T08:45:09.784Z,15.37
2023-04-23T08:47:26.858Z,15.19
2023-04-23T08:49:43.972Z,15.01
2023-04-23T08:52:01.249Z,14.96
2023-04-23T08:54:19.602Z,14.85
2023-04-23T08:56:36.875Z,14.80
2023-04-23T08:58:56.383Z,14.78
2023-04-23T09:01:14.123Z,14.76
2023-04-23T09:03:31.303Z,14.86
2023-04-23T09:05:48.367Z,14.95
2023-04-23T09:08:05.402Z,15.32
2023-04-23T09:10:22.756Z,15.53
2023-04-23T09:12:39.836Z,15.84
2023-04-23T09:14:56.829Z,15.92
2023-04-23T09:17:13.844Z,15.93
2023-04-23T09:19:30.892Z,15.84
2023-04-23T09:21:47.896Z,15.78
2023-04-23T09:24:05.111Z,15.87
2023-04-23T09:26:22.143Z,15.71
2023-04-23T09:28:39.154Z,15.80
2023-04-23T09:30:57.197Z,15.78
2023-04-23T09:33:14.444Z,15.81
2023-04-23T09:35:31.447Z,15.74
2023-04-23T09:37:49.506Z,15.88
2023-04-23T09:40:06.903Z,16.00
2023-04-23T09:42:23.971Z,16.23
2023-04-23T09:44:40.901Z,16.25
2023-04-23T09:46:58.139Z,16.25
2023-04-23T09:49:15.042Z,16.25
2023-04-23T09:51:32.116Z,16.25
2023-04-23T09:53:49.110Z,16.37
2023-04-23T09:56:06.177Z,16.44
2023-04-23T09:58:23.383Z,16.67
2023-04-23T10:00:40.625Z,16.68
2023-04-23T10:02:57.939Z,16.73
2023-04-23T10:07:38.878Z,16.57
2023-04-23T10:09:56.133Z,16.44
2023-04-23T10:12:31.416Z,16.46
2023-04-23T10:14:50.277Z,16.60
2023-04-23T10:17:07.359Z,16.80
2023-04-23T10:19:24.637Z,16.80
2023-04-23T10:21:52.334Z,16.83
2023-04-23T10:24:12.173Z,16.89
2023-04-23T10:26:29.182Z,16.86
2023-04-23T10:28:46.190Z,16.89
2023-04-23T10:31:03.147Z,16.90
2023-04-23T10:33:29.398Z,17.04
2023-04-23T10:35:48.760Z,17.03
2023-04-23T10:38:05.818Z,17.14
2023-04-23T10:40:22.792Z,17.54
2023-04-23T10:42:39.866Z,17.73
2023-04-23T10:45:02.648Z,17.91
2023-04-23T10:47:24.376Z,17.97
2023-04-23T10:49:42.623Z,17.90
2023-04-23T10:52:18.902Z,17.61
2023-04-23T10:54:36.635Z,17.49
2023-04-23T10:56:53.653Z,17.05
2023-04-23T10:59:10.638Z,16.88
2023-04-23T11:01:27.677Z,16.90
2023-04-23T11:03:45.245Z,16.77
2023-04-23T11:06:02.473Z,16.74
2023-04-23T11:08:20.164Z,16.61
2023-04-23T11:10:37.184Z,16.83
2023-04-23T11:12:54.449Z,17.11
2023-04-23T11:15:11.409Z,17.35
2023-04-23T11:17:28.670Z,17.50
2023-04-23T11:19:47.054Z,17.96
2023-04-23T11:22:04.129Z,18.34
2023-04-23T11:24:21.463Z,18.12
2023-04-23T11:26:38.493Z,18.35
2023-04-23T11:28:55.596Z,18.37
2023-04-23T11:31:12.617Z,18.24
2023-04-23T11:33:29.912Z,18.39
2023-04-23T11:35:47.019Z,18.59
2023-04-23T11:38:04.263Z,18.66
2023-04-23T11:40:22.325Z,19.10
2023-04-23T11:42:39.324Z,19.04
2023-04-23T11:44:56.247Z,18.98
2023-04-23T11:47:13.546Z,18.96
2023-04-23T11:49:30.793Z,18.86
2023-04-23T11:51:47.715Z,18.93
2023-04-23T11:54:04.956Z,18.90
2023-04-23T11:56:21.987Z,18.98
2023-04-23T11:58:39.464Z,19.17
2023-04-23T12:00:56.457Z,19.32
2023-04-23T12:03:13.511Z,19.53
2023-04-23T12:05:30.702Z,19.83
2023-04-23T12:07:48.060Z,20.04
2023-04-23T12:10:05.057Z,19.96
2023-04-23T12:12:22.319Z,19.88
2023-04-23T12:14:39.416Z,19.97
2023-04-23T12:16:57.326Z,19.90
2023-04-23T12:19:14.363Z,19.63
2023-04-23T12:21:31.633Z,19.67
2023-04-23T12:23:48.668Z,19.71
2023-04-23T12:26:05.602Z,19.75
2023-04-23T12:28:22.835Z,19.72
2023-04-23T12:30:40.094Z,19.86
2023-04-23T12:32:57.160Z,19.79
2023-04-23T12:35:14.408Z,19.70
2023-04-23T12:37:31.487Z,19.48
2023-04-23T12:39:48.707Z,19.26
2023-04-23T12:42:05.867Z,19.29
2023-04-23T12:44:23.162Z,19.11
2023-04-23T12:46:40.534Z,19.08
2023-04-23T12:48:58.562Z,19.20
2023-04-23T12:51:15.500Z,19.23
2023-04-23T12:53:33.558Z,19.44
2023-04-23T12:55:50.582Z,19.60
2023-04-23T12:58:08.600Z,19.66
2023-04-23T13:00:25.962Z,19.53
2023-04-23T13:02:43.219Z,19.33
2023-04-23T13:05:00.374Z,19.24
2023-04-23T13:07:17.265Z,19.13
2023-04-23T13:09:34.546Z,18.91
2023-04-23T13:11:52.781Z,18.80
2023-04-23T13:14:09.637Z,18.86
2023-04-23T13:16:27.919Z,18.86
2023-04-23T13:18:46.092Z,18.92
2023-04-23T13:21:03.085Z,18.91
2023-04-23T13:23:20.089Z,18.95
2023-04-23T13:25:37.100Z,18.99
2023-04-23T13:27:54.071Z,19.01
2023-04-23T13:30:11.117Z,19.05
2023-04-23T13:32:28.129Z,18.95
2023-04-23T13:34:45.392Z,18.95
2023-04-23T13:37:02.466Z,18.76
2023-04-23T13:39:20.779Z,18.63
2023-04-23T13:41:37.789Z,18.53
2023-04-23T13:43:55.703Z,18.38
2023-04-23T13:46:12.766Z,18.33
2023-04-23T13:48:29.794Z,18.18
2023-04-23T13:50:46.799Z,18.12
2023-04-23T13:53:03.765Z,18.03
2023-04-23T13:55:20.708Z,17.99
2023-04-23T13:57:37.937Z,18.00
2023-04-23T13:59:55.006Z,18.06
2023-04-23T14:02:12.281Z,18.22
2023-04-23T14:04:29.626Z,18.32
2023-04-23T14:06:46.787Z,18.45
2023-04-23T14:09:03.847Z,18.49
2023-04-23T14:11:21.103Z,18.58
2023-04-23T14:13:38.058Z,18.48
2023-04-23T14:15:55.040Z,18.47
2023-04-23T14:18:13.040Z,18.43
2023-04-23T14:20:29.902Z,18.41
2023-04-23T14:22:46.930Z,18.48
2023-04-23T14:25:04.834Z,18.49
2023-04-23T14:27:21.722Z,18.45
2023-04-23T14:29:38.733Z,18.45
2023-04-23T14:31:56.053Z,18.48
2023-04-23T14:34:13.101Z,18.38
2023-04-23T14:36:30.137Z,18.32
2023-04-23T14:38:47.150Z,18.32
2023-04-23T14:41:05.185Z,18.25
2023-04-23T14:43:22.453Z,18.29
2023-04-23T14:45:39.769Z,18.27
2023-04-23T14:47:57.719Z,18.47
2023-04-23T14:50:14.855Z,18.42
2023-04-23T14:52:32.912Z,18.50
2023-04-23T14:54:50.307Z,18.43
2023-04-23T14:57:07.357Z,18.19
2023-04-23T14:59:24.686Z,17.90
2023-04-23T15:01:41.753Z,17.59
2023-04-23T15:03:58.902Z,17.43
2023-04-23T15:06:16.866Z,17.09
2023-04-23T15:08:33.992Z,16.73
2023-04-23T15:10:51.252Z,16.48
2023-04-23T15:13:09.513Z,16.29
2023-04-23T15:15:37.060Z,16.03
2023-04-23T15:18:00.612Z,15.93
2023-04-23T15:20:17.702Z,15.77
2023-04-23T15:22:34.711Z,15.71
2023-04-23T15:24:52.010Z,15.62
2023-04-23T15:27:09.086Z,15.55
2023-04-23T15:29:26.165Z,15.61
2023-04-23T15:31:43.273Z,15.66
2023-04-23T15:34:01.347Z,15.67
2023-04-23T15:36:18.341Z,15.72
2023-04-23T15:38:35.239Z,15.68
2023-04-23T15:40:52.238Z,15.57
2023-04-23T15:43:09.146Z,15.56
2023-04-23T15:45:26.539Z,15.56
2023-04-23T15:47:43.891Z,15.55
2023-04-23T15:50:00.979Z,15.46
2023-04-23T15:52:18.067Z,15.49
2023-04-23T15:54:35.043Z,15.51
2023-04-23T15:56:52.080Z,15.53
2023-04-23T15:59:11.677Z,15.55
2023-04-23T16:01:29.067Z,15.54
2023-04-23T16:04:01.864Z,15.51
2023-04-23T16:06:23.349Z,15.47
2023-04-23T16:08:40.299Z,15.44
2023-04-23T16:10:57.505Z,15.40
2023-04-23T16:13:14.813Z,15.41
2023-04-23T16:15:31.890Z,15.37
2023-04-23T16:17:49.297Z,15.37
2023-04-23T16:20:07.333Z,15.36
2023-04-23T16:22:24.439Z,15.31
2023-04-23T16:24:41.425Z,15.18
2023-04-23T16:26:58.375Z,15.02
2023-04-23T16:29:22.256Z,14.99
2023-04-23T16:31:40.373Z,14.87
2023-04-23T16:33:57.642Z,14.71
2023-04-23T16:36:14.919Z,14.59
2023-04-23T16:38:31.883Z,14.53
2023-04-23T16:40:48.920Z,14.40
2023-04-23T16:43:05.970Z,14.24
2023-04-23T16:45:23.232Z,14.22
2023-04-23T16:47:40.344Z,14.06
2023-04-23T16:49:58.457Z,13.96
2023-04-23T16:52:15.773Z,13.83
2023-04-23T16:54:32.836Z,13.85
2023-04-23T16:56:50.179Z,13.92
2023-04-23T16:59:07.487Z,13.94
2023-04-23T17:01:24.514Z,13.99
2023-04-23T17:03:41.711Z,14.00
2023-04-23T17:06:00.123Z,13.94
2023-04-23T17:08:17.140Z,13.94
2023-04-23T17:10:34.453Z,13.93
2023-04-23T17:12:51.441Z,13.97
2023-04-23T17:15:09.461Z,13.93
2023-04-23T17:17:26.641Z,13.87
2023-04-23T17:19:44.732Z,13.85
2023-04-23T17:22:02.035Z,13.83
2023-04-23T17:24:19.072Z,13.77
2023-04-23T17:26:36.156Z,13.67
2023-04-23T17:28:53.457Z,13.63
2023-04-23T17:31:10.433Z,13.57
2023-04-23T17:33:28.430Z,13.49
2023-04-23T17:35:45.684Z,13.46
2023-04-23T17:38:02.728Z,13.38
2023-04-23T17:40:20.225Z,13.32
2023-04-23T17:42:37.730Z,13.27
2023-04-23T17:44:54.786Z,13.22
2023-04-23T17:47:11.651Z,13.26
2023-04-23T17:49:28.570Z,13.31
2023-04-23T17:51:45.460Z,13.33
2023-04-23T17:54:02.648Z,13.24
2023-04-23T17:56:19.605Z,13.22
2023-04-23T17:58:38.219Z,13.22
2023-04-23T18:00:55.862Z,13.21
2023-04-23T18:03:13.376Z,13.23
2023-04-23T18:05:30.479Z,13.25
2023-04-23T18:07:47.421Z,13.20
2023-04-23T18:10:04.723Z,13.23
2023-04-23T18:12:21.869Z,13.23
2023-04-23T18:14:40.271Z,13.21
2023-04-23T18:16:57.383Z,13.19
2023-04-23T18:19:17.894Z,13.26
2023-04-23T18:21:34.898Z,13.22
2023-04-23T18:23:51.946Z,13.12
2023-04-23T18:26:08.842Z,13.10
2023-04-23T18:28:25.829Z,13.09
2023-04-23T18:30:42.924Z,13.01
2023-04-23T18:32:59.982Z,13.02
2023-04-23T18:35:17.992Z,12.98
2023-04-23T18:37:35.024Z,12.88
2023-04-23T18:39:52.121Z,12.77
2023-04-23T18:42:09.469Z,12.76
2023-04-23T18:44:26.408Z,12.72
2023-04-23T18:46:43.441Z,12.66
2023-04-23T18:49:00.860Z,12.62
2023-04-23T18:51:18.206Z,12.64
2023-04-23T18:53:35.250Z,12.61
2023-04-23T18:55:52.216Z,12.55
2023-04-23T18:58:09.306Z,12.55
2023-04-23T19:00:26.331Z,12.50
2023-04-23T19:02:44.667Z,12.46
2023-04-23T19:05:01.805Z,12.40
2023-04-23T19:07:18.792Z,12.39
2023-04-23T19:09:36.089Z,12.38
2023-04-23T19:11:54.425Z,12.32
2023-04-23T19:14:11.691Z,12.25
2023-04-23T19:16:28.775Z,12.24
2023-04-23T19:18:46.243Z,12.26
2023-04-23T19:21:03.353Z,12.21
2023-04-23T19:23:20.378Z,12.16
2023-04-23T19:25:37.268Z,12.08
2023-04-23T19:27:54.239Z,12.04
2023-04-23T19:30:11.566Z,12.03
2023-04-23T19:32:28.549Z,12.04
2023-04-23T19:34:45.980Z,12.04
2023-04-23T19:37:02.945Z,11.99
2023-04-23T19:39:20.026Z,12.00
2023-04-23T19:41:37.359Z,12.02
2023-04-23T19:43:54.416Z,12.01
2023-04-23T19:46:11.770Z,12.03
2023-04-23T19:48:29.127Z,12.05
2023-04-23T19:50:46.126Z,12.02
2023-04-23T19:53:03.087Z,12.00
2023-04-23T19:55:20.168Z,12.03
2023-04-23T19:57:38.125Z,11.91
2023-04-23T19:59:55.404Z,11.79
2023-04-23T20:02:12.583Z,11.69
2023-04-23T20:04:29.751Z,11.64
2023-04-23T20:06:46.957Z,11.58
2023-04-23T20:09:03.933Z,11.55
2023-04-23T20:11:20.904Z,11.48
2023-04-23T20:13:38.256Z,11.47
2023-04-23T20:15:55.197Z,11.42
2023-04-23T20:18:12.189Z,11.37
2023-04-23T20:20:30.562Z,11.29
2023-04-23T20:22:47.588Z,11.21
2023-04-23T20:25:04.517Z,11.11
2023-04-23T20:27:22.553Z,11.08
2023-04-23T20:29:39.655Z,11.06
2023-04-23T20:31:57.105Z,10.99
2023-04-23T20:34:14.063Z,10.92
2023-04-23T20:36:31.273Z,10.89
2023-04-23T20:38:48.405Z,10.92
2023-04-23T20:41:05.449Z,10.91
2023-04-23T20:43:22.518Z,10.88
2023-04-23T20:45:39.579Z,10.88
2023-04-23T20:47:56.664Z,10.87
2023-04-23T20:50:13.679Z,10.86
2023-04-23T20:52:30.655Z,10.88
2023-04-23T20:54:48.028Z,10.91
2023-04-23T20:57:04.982Z,10.91
2023-04-23T20:59:21.892Z,10.88
2023-04-23T21:01:39.047Z,10.95
2023-04-23T21:03:56.259Z,10.98
2023-04-23T21:06:13.798Z,11.01
2023-04-23T21:08:30.714Z,10.96
2023-04-23T21:10:48.603Z,10.90
2023-04-23T21:13:06.580Z,10.85
2023-04-23T21:15:23.863Z,10.83
2023-04-23T21:17:40.848Z,10.81
2023-04-23T21:19:59.188Z,10.85
2023-04-23T21:22:16.205Z,10.73
2023-04-23T21:24:33.210Z,10.70
2023-04-23T21:26:50.549Z,10.64
2023-04-23T21:29:08.822Z,10.65
2023-04-23T21:31:25.846Z,10.63
2023-04-23T21:33:43.156Z,10.63
2023-04-23T21:36:00.516Z,10.57
2023-04-23T21:38:17.790Z,10.55
2023-04-23T21:40:35.065Z,10.58
2023-04-23T21:42:52.390Z,10.59
2023-04-23T21:45:09.725Z,10.58
2023-04-23T21:47:26.747Z,10.52
2023-04-23T21:49:44.372Z,10.50
2023-04-23T21:52:01.480Z,10.53
2023-04-23T21:54:18.438Z,10.54
2023-04-23T21:56:35.757Z,10.52
2023-04-23T21:58:53.845Z,10.55
2023-04-23T22:01:10.827Z,10.50
2023-04-23T22:03:38.295Z,10.52
2023-04-23T22:05:56.237Z,10.59
2023-04-23T22:08:13.327Z,10.55
2023-04-23T22:10:30.466Z,10.56
2023-04-23T22:12:47.372Z,10.61
2023-04-23T22:15:05.299Z,10.67
2023-04-23T22:17:22.354Z,10.69
2023-04-23T22:19:39.529Z,10.71
2023-04-23T22:21:56.603Z,10.74
2023-04-23T22:24:13.958Z,10.73
2023-04-23T22:26:31.233Z,10.73
2023-04-23T22:28:49.320Z,10.72
2023-04-23T22:31:07.255Z,10.72
2023-04-23T22:33:24.582Z,10.72
2023-04-23T22:35:41.834Z,10.76
2023-04-23T22:37:59.842Z,10.84
2023-04-23T22:40:17.076Z,10.81
2023-04-23T22:42:34.162Z,10.85
2023-04-23T22:44:51.434Z,10.84
2023-04-23T22:47:08.442Z,10.85
2023-04-23T22:49:26.452Z,10.85
2023-04-23T22:51:43.520Z,10.88
2023-04-23T22:54:01.507Z,10.94
2023-04-23T22:56:18.834Z,10.99
2023-04-23T22:58:35.869Z,11.04
2023-04-23T23:00:52.870Z,11.10
2023-04-23T23:03:10.290Z,11.14
2023-04-23T23:05:27.378Z,11.18
2023-04-23T23:07:46.244Z,11.19
2023-04-23T23:10:03.227Z,11.21
2023-04-23T23:12:20.587Z,11.25
2023-04-23T23:14:37.577Z,11.25
2023-04-23T23:16:54.725Z,11.23
2023-04-23T23:19:11.807Z,11.24
2023-04-23T23:21:28.844Z,11.27
2023-04-23T23:23:45.992Z,11.28
2023-04-23T23:26:02.967Z,11.29
2023-04-23T23:28:21.238Z,11.30
2023-04-23T23:30:38.207Z,11.32
2023-04-23T23:32:55.525Z,11.33
2023-04-23T23:35:12.847Z,11.30
2023-04-23T23:37:30.090Z,11.28
2023-04-23T23:39:47.535Z,11.29
2023-04-23T23:42:06.947Z,11.28
2023-04-23T23:44:24.229Z,11.32
2023-04-23T23:46:41.508Z,11.35
2023-04-23T23:48:58.526Z,11.35
2023-04-23T23:51:15.837Z,11.37
2023-04-23T23:53:32.691Z,11.41
2023-04-23T23:55:50.398Z,11.41
2023-04-23T23:58:07.724Z,11.44
